Time;durP1;ratioP1;P1;durP2;ratioP2;P2;SDS_P1;SDS_P2;PMS_P1;PMS_P2;Temp;Humidity;BMP_temperature;BMP_pressure;BME280_temperature;BME280_humidity;BME280_pressure;Samples;Min_cycle;Max_cycle;Signal;HPM_P1;HPM_P2
2022/07/28 00:00:12;;;;;;;3.07;2.57;;;16.00;1.00;;;;;;6267104;28;20316;-55
2022/07/28 00:03:15;;;;;;;3.60;3.07;;;15.90;1.00;;;;;;6270968;28;20888;-55
2022/07/28 00:06:18;;;;;;;3.03;2.63;;;15.80;1.00;;;;;;6271675;28;20221;-54
2022/07/28 00:09:21;;;;;;;5.47;3.00;;;15.80;1.00;;;;;;6263209;28;20376;-56
2022/07/28 00:12:24;;;;;;;3.13;2.77;;;15.80;1.00;;;;;;6265435;28;20234;-54
2022/07/28 00:15:29;;;;;;;2.90;2.60;;;15.70;1.00;;;;;;6244692;28;20225;-53
2022/07/28 00:18:32;;;;;;;3.87;3.20;;;15.60;1.00;;;;;;6260415;28;20410;-54
2022/07/28 00:21:35;;;;;;;3.20;2.77;;;15.60;1.00;;;;;;6269972;28;20384;-55
2022/07/28 00:24:38;;;;;;;4.37;3.00;;;15.60;1.00;;;;;;6270399;28;20238;-56
2022/07/28 00:27:41;;;;;;;4.87;3.10;;;15.50;1.00;;;;;;6272469;28;20416;-54
2022/07/28 00:30:45;;;;;;;3.57;3.30;;;15.50;1.00;;;;;;6265252;28;20260;-54
2022/07/28 00:33:48;;;;;;;3.07;2.87;;;15.50;1.00;;;;;;6273086;28;20244;-54
2022/07/28 00:36:51;;;;;;;9.53;3.00;;;15.40;1.00;;;;;;6274038;28;20240;-55
2022/07/28 00:39:54;;;;;;;3.00;2.90;;;15.40;1.00;;;;;;6275274;28;20293;-55
2022/07/28 00:42:57;;;;;;;4.00;3.07;;;15.30;1.00;;;;;;6266211;28;20230;-61
2022/07/28 00:46:01;;;;;;;3.87;3.20;;;15.30;1.00;;;;;;6275772;28;20944;-53
2022/07/28 00:49:04;;;;;;;3.53;3.20;;;15.20;1.00;;;;;;6269493;28;20958;-55
2022/07/28 00:52:09;;;;;;;5.87;2.87;;;15.20;1.00;;;;;;6266868;28;20240;-55
2022/07/28 00:55:12;;;;;;;2.63;2.40;;;15.20;1.00;;;;;;6267339;28;20355;-55
2022/07/28 00:58:15;;;;;;;4.07;2.63;;;15.20;1.00;;;;;;6265494;28;20226;-55
2022/07/28 01:01:20;;;;;;;3.30;2.83;;;15.10;1.00;;;;;;6266645;28;20292;-55
2022/07/28 01:04:24;;;;;;;3.03;2.67;;;15.10;1.00;;;;;;6267147;28;20238;-55
2022/07/28 01:07:35;;;;;;;3.50;3.00;;;15.10;1.00;;;;;;6273137;28;20254;-55
2022/07/28 01:10:48;;;;;;;2.53;2.43;;;15.00;1.00;;;;;;6269836;28;20441;-55
2022/07/28 01:14:00;;;;;;;3.07;2.87;;;14.90;1.00;;;;;;6273436;28;20662;-54
2022/07/28 01:17:14;;;;;;;2.60;2.40;;;14.90;1.00;;;;;;6267137;28;20761;-55
2022/07/28 01:20:22;;;;;;;3.93;3.10;;;14.90;1.00;;;;;;6266656;28;20251;-55
2022/07/28 01:24:00;;;;;;;2.60;2.40;;;14.90;1.00;;;;;;6264223;28;20290;-55
2022/07/28 01:27:07;;;;;;;2.63;2.53;;;14.80;1.00;;;;;;6243612;28;20256;-55
2022/07/28 01:30:30;;;;;;;2.70;2.60;;;14.70;1.00;;;;;;6270550;28;20658;-55
2022/07/28 01:33:38;;;;;;;2.67;2.57;;;14.70;1.00;;;;;;6260895;28;20780;-55
2022/07/28 01:36:45;;;;;;;2.70;2.60;;;14.60;1.00;;;;;;6264056;28;20919;-54
2022/07/28 01:39:52;;;;;;;2.60;2.40;;;14.60;1.00;;;;;;6267381;28;20800;-55
2022/07/28 01:42:58;;;;;;;4.03;3.00;;;14.60;1.00;;;;;;6267573;28;20241;-54
2022/07/28 01:46:03;;;;;;;3.00;2.63;;;14.50;1.00;;;;;;6265997;28;20508;-54
2022/07/28 01:49:08;;;;;;;3.00;2.70;;;14.40;1.00;;;;;;6265540;28;20270;-55
2022/07/28 01:52:12;;;;;;;2.83;2.63;;;14.40;1.00;;;;;;6272422;28;20226;-55
2022/07/28 01:55:18;;;;;;;2.40;2.30;;;14.40;1.00;;;;;;6263960;28;20226;-53
2022/07/28 01:58:23;;;;;;;2.27;2.27;;;14.30;1.00;;;;;;6266378;28;20371;-53
2022/07/28 02:01:29;;;;;;;2.43;2.43;;;14.30;1.00;;;;;;6264817;28;20229;-55
2022/07/28 02:04:36;;;;;;;2.30;2.20;;;14.30;1.00;;;;;;6268027;28;20226;-54
2022/07/28 02:07:41;;;;;;;2.87;2.70;;;14.20;1.00;;;;;;6272555;28;20618;-55
2022/07/28 02:11:38;;;;;;;2.50;2.30;;;14.20;1.00;;;;;;6270756;28;20254;-55
2022/07/28 02:14:15;;;;;;;2.80;2.60;;;14.20;1.00;;;;;;6263408;28;20721;-55
2022/07/28 02:17:25;;;;;;;2.90;2.70;;;14.10;1.00;;;;;;6266401;28;20245;-55
2022/07/28 02:20:29;;;;;;;2.50;2.40;;;14.00;1.00;;;;;;6262808;28;20320;-53
2022/07/28 02:23:34;;;;;;;3.13;2.83;;;14.00;1.00;;;;;;6273658;28;20230;-55
2022/07/28 02:26:39;;;;;;;2.73;2.53;;;14.00;1.00;;;;;;6262584;28;20230;-54
2022/07/28 02:29:47;;;;;;;2.80;2.60;;;14.00;1.00;;;;;;6264372;28;20300;-55
2022/07/28 02:32:58;;;;;;;2.80;2.60;;;13.90;1.00;;;;;;6266306;28;20312;-53
2022/07/28 02:36:06;;;;;;;2.70;2.60;;;13.90;1.00;;;;;;6272597;28;20237;-54
2022/07/28 02:39:17;;;;;;;2.67;2.50;;;13.80;1.00;;;;;;6268261;28;20265;-53
2022/07/28 02:42:28;;;;;;;2.97;2.87;;;13.80;1.00;;;;;;6264964;28;20364;-55
2022/07/28 02:45:33;;;;;;;2.43;2.33;;;13.80;1.00;;;;;;6271904;28;20222;-54
2022/07/28 02:48:39;;;;;;;2.93;2.73;;;13.80;1.00;;;;;;6267266;28;20796;-54
2022/07/28 02:51:45;;;;;;;2.60;2.50;;;13.80;1.00;;;;;;6264150;28;20614;-53
2022/07/28 02:54:49;;;;;;;2.57;2.47;;;13.70;1.00;;;;;;6268378;28;20306;-53
2022/07/28 02:57:53;;;;;;;2.77;2.50;;;13.70;1.00;;;;;;6262401;28;20275;-55
2022/07/28 03:01:00;;;;;;;2.83;2.70;;;13.70;1.00;;;;;;6261622;28;20237;-53
2022/07/28 03:04:05;;;;;;;3.03;2.80;;;13.60;1.00;;;;;;6268633;28;20240;-55
2022/07/28 03:07:08;;;;;;;3.60;3.30;;;13.60;1.00;;;;;;6262297;28;20260;-55
2022/07/28 03:10:20;;;;;;;3.00;2.83;;;13.60;1.00;;;;;;6271374;28;20364;-57
2022/07/28 03:13:36;;;;;;;2.83;2.73;;;13.60;1.00;;;;;;6273673;28;20305;-55
2022/07/28 03:16:39;;;;;;;2.80;2.70;;;13.50;1.00;;;;;;6269198;28;20503;-54
2022/07/28 03:19:44;;;;;;;2.77;2.67;;;13.50;1.00;;;;;;6270831;28;20504;-54
2022/07/28 03:22:47;;;;;;;2.90;2.80;;;13.50;1.00;;;;;;6272304;28;20259;-55
2022/07/28 03:25:54;;;;;;;3.07;2.43;;;13.50;1.00;;;;;;6275250;28;20236;-53
2022/07/28 03:28:58;;;;;;;2.50;2.40;;;13.50;1.00;;;;;;6269129;28;20659;-54
2022/07/28 03:32:01;;;;;;;2.57;2.57;;;13.50;1.00;;;;;;6257883;28;20259;-55
2022/07/28 03:35:07;;;;;;;2.90;2.80;;;13.50;1.00;;;;;;6276526;28;20558;-54
2022/07/28 03:38:14;;;;;;;2.77;2.60;;;13.50;1.00;;;;;;6275912;28;20313;-54
2022/07/28 03:41:21;;;;;;;2.73;2.63;;;13.50;1.00;;;;;;6276864;28;20233;-54
2022/07/28 03:44:25;;;;;;;2.60;2.50;;;13.50;1.00;;;;;;6277998;28;20324;-55
2022/07/28 03:47:30;;;;;;;3.07;2.87;;;13.50;1.00;;;;;;6283438;28;20325;-53
2022/07/28 03:50:35;;;;;;;2.60;2.50;;;13.50;1.00;;;;;;6279694;28;20323;-54
2022/07/28 03:53:38;;;;;;;3.20;2.93;;;13.50;1.00;;;;;;6279550;28;20240;-56
2022/07/28 03:56:41;;;;;;;2.80;2.70;;;13.50;1.00;;;;;;6286436;28;20231;-53
2022/07/28 03:59:44;;;;;;;2.80;2.70;;;13.50;1.00;;;;;;6284055;28;20330;-54
2022/07/28 04:02:47;;;;;;;2.73;2.70;;;13.50;1.00;;;;;;6285355;28;20815;-55
2022/07/28 04:05:54;;;;;;;3.10;2.90;;;13.50;1.00;;;;;;6284223;28;20236;-54
2022/07/28 04:08:57;;;;;;;3.07;2.83;;;13.60;1.00;;;;;;6270830;28;20286;-54
2022/07/28 04:12:00;;;;;;;2.70;2.60;;;13.60;1.00;;;;;;6277208;28;20712;-55
2022/07/28 04:15:03;;;;;;;3.73;2.90;;;13.60;1.00;;;;;;6275621;28;20359;-55
2022/07/28 04:18:07;;;;;;;3.00;2.90;;;13.70;1.00;;;;;;6285542;28;20435;-52
2022/07/28 04:21:11;;;;;;;2.70;2.60;;;13.70;1.00;;;;;;6291568;28;20347;-55
2022/07/28 04:24:14;;;;;;;2.50;2.50;;;13.70;1.00;;;;;;6284111;28;20413;-55
2022/07/28 04:27:17;;;;;;;2.70;2.60;;;13.80;1.00;;;;;;6287308;28;20233;-53
2022/07/28 04:30:23;;;;;;;2.73;2.63;;;13.80;1.00;;;;;;6283636;28;20590;-53
2022/07/28 04:33:26;;;;;;;3.13;2.60;;;13.90;1.00;;;;;;6281241;28;20640;-53
2022/07/28 04:36:31;;;;;;;3.73;3.13;;;13.90;1.00;;;;;;6296534;28;20386;-55
2022/07/28 04:39:35;;;;;;;4.20;3.00;;;14.00;1.00;;;;;;6256051;28;20532;-53
2022/07/28 04:42:39;;;;;;;3.10;2.90;;;14.00;1.00;;;;;;6277677;28;20241;-55
2022/07/28 04:45:42;;;;;;;3.90;3.53;;;14.10;1.00;;;;;;6277532;28;20233;-54
2022/07/28 04:48:56;;;;;;;3.43;2.70;;;14.20;1.00;;;;;;6283408;28;20232;-55
2022/07/28 04:52:00;;;;;;;5.57;2.90;;;14.30;1.00;;;;;;6285255;28;20229;-54
2022/07/28 04:55:04;;;;;;;4.67;3.90;;;14.40;1.00;;;;;;6281920;28;20324;-54
2022/07/28 04:58:07;;;;;;;5.87;3.60;;;14.50;1.00;;;;;;6291846;28;20637;-54
2022/07/28 05:01:12;;;;;;;6.93;3.77;;;14.70;1.00;;;;;;6271315;28;20312;-54
2022/07/28 05:04:15;;;;;;;7.93;3.47;;;14.90;1.00;;;;;;6264182;28;20470;-53
2022/07/28 05:07:21;;;;;;;4.60;3.43;;;15.20;1.00;;;;;;6283162;28;20264;-54
2022/07/28 05:10:24;;;;;;;4.90;3.67;;;15.40;1.00;;;;;;6275070;28;20337;-55
2022/07/28 05:13:27;;;;;;;3.53;3.23;;;15.70;1.00;;;;;;6271845;28;20247;-53
2022/07/28 05:16:36;;;;;;;6.00;3.53;;;16.00;1.00;;;;;;6274053;28;20229;-55
2022/07/28 05:19:40;;;;;;;4.27;3.70;;;16.20;1.00;;;;;;6276497;28;20233;-54
2022/07/28 05:22:46;;;;;;;3.17;2.90;;;16.50;1.00;;;;;;6281487;28;20290;-55
2022/07/28 05:25:49;;;;;;;3.17;2.90;;;16.70;1.00;;;;;;6286341;28;20332;-54
2022/07/28 05:28:52;;;;;;;7.03;4.00;;;16.90;1.00;;;;;;6277493;28;20736;-54
2022/07/28 05:31:55;;;;;;;4.60;2.90;;;17.30;1.00;;;;;;6282047;28;20855;-54
2022/07/28 05:34:58;;;;;;;5.67;3.47;;;17.50;1.00;;;;;;6283077;28;20228;-54
2022/07/28 05:38:02;;;;;;;4.03;3.20;;;17.70;1.00;;;;;;6278741;28;20227;-54
2022/07/28 05:41:12;;;;;;;7.27;3.10;;;18.00;1.00;;;;;;6281313;28;20286;-54
2022/07/28 05:44:15;;;;;;;8.37;3.20;;;18.30;1.00;;;;;;6281207;28;20547;-55
2022/07/28 05:47:19;;;;;;;3.13;2.80;;;18.50;1.00;;;;;;6280452;28;20244;-53
2022/07/28 05:50:23;;;;;;;3.77;3.43;;;18.80;1.00;;;;;;6284652;28;20835;-53
2022/07/28 05:53:27;;;;;;;3.03;2.80;;;19.00;1.00;;;;;;6277138;28;20233;-55
2022/07/28 05:56:30;;;;;;;3.27;3.00;;;19.20;1.00;;;;;;6284935;28;20233;-53
2022/07/28 05:59:33;;;;;;;4.80;3.40;;;19.40;1.00;;;;;;6290603;28;20323;-54
2022/07/28 06:02:37;;;;;;;4.57;2.90;;;19.50;1.00;;;;;;6273077;28;20313;-53
2022/07/28 06:05:40;;;;;;;9.53;3.10;;;19.70;1.00;;;;;;6287795;28;20331;-55
2022/07/28 06:09:05;;;;;;;7.63;2.77;;;19.90;1.00;;;;;;6286439;28;20241;-54
2022/07/28 06:12:08;;;;;;;3.90;3.47;;;20.00;1.00;;;;;;6283924;28;20439;-55
2022/07/28 06:15:13;;;;;;;10.13;3.40;;;20.10;1.00;;;;;;6290365;28;20229;-54
2022/07/28 06:18:16;;;;;;;6.77;3.27;;;20.30;1.00;;;;;;6283843;28;20229;-54
2022/07/28 06:21:22;;;;;;;4.40;2.67;;;20.30;1.00;;;;;;6280477;28;20232;-54
2022/07/28 06:24:26;;;;;;;6.90;3.17;;;20.60;1.00;;;;;;6283296;28;20294;-55
2022/07/28 06:27:29;;;;;;;4.57;3.10;;;21.00;1.00;;;;;;6267487;28;20929;-54
2022/07/28 06:30:32;;;;;;;7.47;3.07;;;21.20;1.00;;;;;;6277163;28;20297;-55
2022/07/28 06:33:35;;;;;;;5.90;3.60;;;21.30;1.00;;;;;;6277107;28;20233;-54
2022/07/28 06:36:38;;;;;;;4.80;2.90;;;21.50;1.00;;;;;;6282013;28;20243;-56
2022/07/28 06:39:42;;;;;;;7.63;3.10;;;21.80;1.00;;;;;;6283194;28;20283;-54
2022/07/28 06:42:46;;;;;;;7.53;3.07;;;22.00;1.00;;;;;;6286039;28;20373;-53
2022/07/28 06:45:50;;;;;;;3.47;2.80;;;22.30;1.00;;;;;;6290098;28;20344;-54
2022/07/28 06:48:52;;;;;;;5.10;2.80;;;22.40;1.00;;;;;;6284253;28;20719;-54
2022/07/28 06:51:56;;;;;;;3.43;3.13;;;22.50;1.00;;;;;;6286453;28;20736;-54
2022/07/28 06:55:00;;;;;;;5.03;3.20;;;22.50;1.00;;;;;;6289526;28;20363;-55
2022/07/28 06:58:04;;;;;;;5.10;2.60;;;22.50;1.00;;;;;;6281673;28;20267;-54
2022/07/28 07:01:07;;;;;;;5.60;2.87;;;22.30;1.00;;;;;;6281769;28;20240;-54
2022/07/28 07:04:10;;;;;;;5.57;3.07;;;22.10;1.00;;;;;;6299409;28;20228;-54
2022/07/28 07:07:14;;;;;;;3.80;2.83;;;21.80;1.00;;;;;;6285350;28;20663;-56
2022/07/28 07:10:20;;;;;;;4.60;2.83;;;21.80;1.00;;;;;;6282411;28;20260;-54
2022/07/28 07:13:23;;;;;;;5.13;3.43;;;21.40;1.00;;;;;;6286497;28;20320;-53
2022/07/28 07:16:26;;;;;;;5.07;3.10;;;20.70;1.00;;;;;;6285053;28;20322;-54
2022/07/28 07:19:29;;;;;;;6.10;3.30;;;20.30;1.00;;;;;;6289063;28;20396;-54
2022/07/28 07:22:32;;;;;;;6.93;2.80;;;20.40;1.00;;;;;;6291428;28;20316;-54
2022/07/28 07:25:39;;;;;;;5.53;3.03;;;20.50;1.00;;;;;;6283352;28;20320;-54
2022/07/28 07:28:42;;;;;;;9.13;3.37;;;20.70;1.00;;;;;;6274382;28;20325;-57
2022/07/28 07:31:46;;;;;;;9.17;3.10;;;20.90;1.00;;;;;;6281110;28;20260;-53
2022/07/28 07:34:54;;;;;;;3.23;2.87;;;20.90;1.00;;;;;;6276645;28;20604;-54
2022/07/28 07:37:57;;;;;;;8.00;3.07;;;20.60;1.00;;;;;;6287333;28;20632;-54
2022/07/28 07:41:01;;;;;;;4.60;2.50;;;20.70;1.00;;;;;;6280082;28;20336;-54
2022/07/28 07:44:05;;;;;;;7.80;3.20;;;20.70;1.00;;;;;;6288265;28;20226;-60
2022/07/28 07:47:09;;;;;;;6.87;2.80;;;20.60;1.00;;;;;;6288064;28;20262;-54
2022/07/28 07:50:12;;;;;;;4.43;2.93;;;20.60;1.00;;;;;;6284316;28;20275;-54
2022/07/28 07:53:15;;;;;;;5.33;2.80;;;20.40;1.00;;;;;;6285065;28;20324;-53
2022/07/28 07:56:19;;;;;;;3.33;2.70;;;20.50;1.00;;;;;;6284851;28;20324;-54
2022/07/28 07:59:22;;;;;;;3.90;2.67;;;20.50;1.00;;;;;;6286999;28;20297;-55
2022/07/28 08:02:25;;;;;;;2.77;2.40;;;20.40;1.00;;;;;;6286699;28;20320;-54
2022/07/28 08:05:29;;;;;;;4.50;2.60;;;20.30;1.00;;;;;;6283916;28;20629;-54
2022/07/28 08:08:38;;;;;;;4.43;2.93;;;20.40;1.00;;;;;;6276906;28;20347;-53
2022/07/28 08:11:51;;;;;;;3.57;2.73;;;20.50;1.00;;;;;;6282543;28;20713;-55
2022/07/28 08:14:54;;;;;;;7.00;2.83;;;20.50;1.00;;;;;;6279908;28;20316;-53
2022/07/28 08:17:57;;;;;;;4.47;2.63;;;20.50;1.00;;;;;;6283997;28;20272;-54
2022/07/28 08:21:00;;;;;;;6.63;2.67;;;20.60;1.00;;;;;;6282929;28;20232;-55
2022/07/28 08:24:04;;;;;;;2.53;2.20;;;20.70;1.00;;;;;;6287790;28;20892;-54
2022/07/28 08:27:08;;;;;;;3.07;2.40;;;20.50;1.00;;;;;;6283464;28;20250;-53
2022/07/28 08:30:14;;;;;;;5.70;2.90;;;20.70;1.00;;;;;;6282762;28;20844;-53
2022/07/28 08:33:23;;;;;;;4.37;2.50;;;20.80;1.00;;;;;;6283680;28;20237;-53
2022/07/28 08:36:25;;;;;;;3.23;2.10;;;20.80;1.00;;;;;;6285367;28;20706;-54
2022/07/28 08:39:29;;;;;;;3.20;2.40;;;20.80;1.00;;;;;;6275757;28;20341;-53
2022/07/28 08:42:38;;;;;;;7.57;2.93;;;20.90;1.00;;;;;;6284735;28;20243;-54
2022/07/28 08:45:45;;;;;;;3.73;2.50;;;20.90;1.00;;;;;;6288497;28;20268;-53
2022/07/28 08:48:50;;;;;;;3.93;2.13;;;20.80;1.00;;;;;;6280007;28;20292;-54
2022/07/28 08:51:57;;;;;;;4.37;2.63;;;20.70;1.00;;;;;;6286846;28;20232;-54
2022/07/28 08:55:05;;;;;;;2.70;2.43;;;20.90;1.00;;;;;;6276584;28;20237;-53
2022/07/28 08:58:12;;;;;;;4.10;2.20;;;20.90;1.00;;;;;;6281905;28;20322;-55
2022/07/28 09:01:16;;;;;;;2.40;2.20;;;21.20;1.00;;;;;;6291275;28;20328;-53
2022/07/28 09:04:20;;;;;;;3.63;2.40;;;21.30;1.00;;;;;;6278927;28;20229;-53
2022/07/28 09:07:23;;;;;;;2.50;2.30;;;21.20;1.00;;;;;;6280023;28;20270;-53
2022/07/28 09:10:26;;;;;;;2.40;2.20;;;21.30;1.00;;;;;;6280842;28;20237;-54
2022/07/28 09:13:31;;;;;;;3.60;2.50;;;21.40;1.00;;;;;;6284284;28;20655;-55
2022/07/28 09:16:34;;;;;;;6.77;2.73;;;21.70;1.00;;;;;;6277083;28;20376;-54
2022/07/28 09:19:37;;;;;;;4.13;2.70;;;21.80;1.00;;;;;;6277329;28;20319;-53
2022/07/28 09:22:56;;;;;;;8.47;2.50;;;21.70;1.00;;;;;;6281269;28;20234;-53
2022/07/28 09:26:06;;;;;;;3.57;2.20;;;21.90;1.00;;;;;;6277347;28;20329;-53
2022/07/28 09:29:23;;;;;;;6.17;2.97;;;21.60;1.00;;;;;;6269814;28;20871;-55
2022/07/28 09:32:27;;;;;;;3.67;2.40;;;21.50;1.00;;;;;;6283447;28;20736;-53
2022/07/28 09:35:30;;;;;;;7.77;3.07;;;21.50;1.00;;;;;;6274619;28;20233;-53
2022/07/28 09:38:41;;;;;;;2.57;2.40;;;21.90;1.00;;;;;;6278993;28;20316;-54
2022/07/28 09:41:49;;;;;;;2.50;2.30;;;22.20;1.00;;;;;;6273717;28;20617;-55
2022/07/28 09:45:07;;;;;;;3.40;2.60;;;22.50;1.00;;;;;;6281075;28;20716;-54
2022/07/28 09:48:27;;;;;;;4.70;2.30;;;22.60;1.00;;;;;;6283589;28;20720;-54
2022/07/28 09:51:32;;;;;;;3.13;2.50;;;22.40;1.00;;;;;;6293550;28;20233;-52
2022/07/28 09:54:35;;;;;;;5.53;2.50;;;22.30;1.00;;;;;;6273002;28;20256;-54
2022/07/28 09:57:43;;;;;;;5.17;2.90;;;22.40;1.00;;;;;;6289535;28;20362;-54
2022/07/28 10:00:49;;;;;;;3.33;2.10;;;22.40;1.00;;;;;;6275096;28;20298;-53
2022/07/28 10:03:56;;;;;;;6.47;2.40;;;22.30;1.00;;;;;;6281402;28;20379;-55
2022/07/28 10:07:02;;;;;;;5.97;2.67;;;22.40;1.00;;;;;;6276274;28;20268;-54
2022/07/28 10:10:08;;;;;;;3.10;2.20;;;22.40;1.00;;;;;;6288742;28;20435;-54
2022/07/28 10:13:11;;;;;;;2.97;2.53;;;22.40;1.00;;;;;;6275511;28;20400;-54
2022/07/28 10:16:15;;;;;;;4.77;2.40;;;22.10;1.00;;;;;;6289456;28;20271;-56
2022/07/28 10:19:18;;;;;;;3.60;2.23;;;22.10;1.00;;;;;;6295657;28;20241;-54
2022/07/28 10:22:24;;;;;;;2.93;2.60;;;22.10;1.00;;;;;;6285465;28;20812;-54
2022/07/28 10:25:30;;;;;;;3.27;2.47;;;22.00;1.00;;;;;;6287536;28;20294;-54
2022/07/28 10:28:36;;;;;;;5.33;2.90;;;22.10;1.00;;;;;;6274248;28;20284;-53
2022/07/28 10:31:50;;;;;;;3.47;2.67;;;22.20;1.00;;;;;;6279329;28;20839;-53
2022/07/28 10:35:00;;;;;;;5.53;2.50;;;22.40;1.00;;;;;;6279294;28;20243;-54
2022/07/28 10:38:05;;;;;;;4.33;2.70;;;22.50;1.00;;;;;;6270904;28;20732;-54
2022/07/28 10:41:09;;;;;;;3.70;2.17;;;22.50;1.00;;;;;;6272709;28;20233;-54
2022/07/28 10:44:13;;;;;;;4.60;2.43;;;22.80;1.00;;;;;;6282315;28;20233;-53
2022/07/28 10:47:20;;;;;;;2.70;2.50;;;22.90;1.00;;;;;;6280803;28;20741;-53
2022/07/28 10:50:24;;;;;;;9.23;3.07;;;23.20;1.00;;;;;;6275381;28;20351;-55
2022/07/28 10:53:34;;;;;;;4.30;3.00;;;23.20;1.00;;;;;;6281617;28;20312;-54
2022/07/28 10:56:49;;;;;;;6.30;2.90;;;23.30;1.00;;;;;;6287777;28;20606;-55
2022/07/28 11:00:03;;;;;;;7.13;3.67;;;23.20;1.00;;;;;;6285016;28;20315;-53
2022/07/28 11:03:38;;;;;;;2.73;2.53;;;23.10;1.00;;;;;;6283164;28;20233;-54
2022/07/28 11:06:44;;;;;;;6.17;2.70;;;22.90;1.00;;;;;;6278993;28;20384;-55
2022/07/28 11:09:48;;;;;;;3.43;2.73;;;22.80;1.00;;;;;;6282282;28;20283;-54
2022/07/28 11:12:53;;;;;;;4.33;2.70;;;22.80;1.00;;;;;;6280947;28;20221;-54
2022/07/28 11:16:17;;;;;;;3.60;2.60;;;23.00;1.00;;;;;;6282285;28;20417;-54
2022/07/28 11:19:22;;;;;;;4.47;2.50;;;23.20;1.00;;;;;;6286604;28;20240;-55
2022/07/28 11:22:48;;;;;;;2.13;2.03;;;23.30;1.00;;;;;;6278839;28;20233;-53
2022/07/28 11:26:33;;;;;;;3.20;2.50;;;23.20;1.00;;;;;;6283509;28;20259;-53
2022/07/28 11:29:46;;;;;;;7.33;2.93;;;23.10;1.00;;;;;;6278864;28;20508;-54
2022/07/28 11:32:59;;;;;;;5.27;2.90;;;23.40;1.00;;;;;;6291598;28;20251;-54
2022/07/28 11:36:03;;;;;;;3.23;2.87;;;23.50;1.00;;;;;;6277051;28;20466;-54
2022/07/28 11:39:22;;;;;;;4.00;2.80;;;23.70;1.00;;;;;;6281961;28;20241;-53
2022/07/28 11:42:27;;;;;;;3.20;2.87;;;23.80;1.00;;;;;;6286700;28;20310;-54
2022/07/28 11:45:30;;;;;;;3.07;2.53;;;24.00;1.00;;;;;;6277178;28;20304;-52
2022/07/28 11:48:43;;;;;;;6.40;2.70;;;24.00;1.00;;;;;;6273533;28;20230;-53
2022/07/28 11:52:22;;;;;;;4.43;2.30;;;23.90;1.00;;;;;;6293160;28;20289;-55
2022/07/28 11:55:25;;;;;;;4.20;2.33;;;23.80;1.00;;;;;;6292519;28;20321;-53
2022/07/28 11:58:56;;;;;;;3.90;2.60;;;24.10;1.00;;;;;;6279162;28;20241;-54
2022/07/28 12:01:59;;;;;;;4.20;2.07;;;24.00;1.00;;;;;;6287364;28;20379;-53
2022/07/28 12:05:13;;;;;;;2.57;2.37;;;24.20;1.00;;;;;;6291710;28;20298;-53
2022/07/28 12:08:17;;;;;;;2.80;2.60;;;24.30;1.00;;;;;;6283302;28;20241;-55
2022/07/28 12:11:23;;;;;;;6.17;2.53;;;24.50;1.00;;;;;;6280440;28;20245;-54
2022/07/28 12:14:27;;;;;;;5.53;2.50;;;24.50;1.00;;;;;;6290145;28;20261;-53
2022/07/28 12:17:34;;;;;;;6.40;2.90;;;24.60;1.00;;;;;;6269188;28;20722;-53
2022/07/28 12:20:45;;;;;;;3.27;2.40;;;24.70;1.00;;;;;;6287914;28;20354;-52
2022/07/28 12:23:54;;;;;;;4.00;2.30;;;24.80;1.00;;;;;;6292146;28;20245;-53
2022/07/28 12:26:59;;;;;;;3.47;2.20;;;24.80;1.00;;;;;;6284038;28;20319;-52
2022/07/28 12:30:03;;;;;;;3.73;2.47;;;24.90;1.00;;;;;;6288715;28;20242;-55
2022/07/28 12:33:16;;;;;;;4.40;2.43;;;24.80;1.00;;;;;;6296674;28;20326;-53
2022/07/28 12:36:20;;;;;;;3.80;2.43;;;24.80;1.00;;;;;;6289335;28;20309;-52
2022/07/28 12:39:25;;;;;;;6.60;2.50;;;25.00;1.00;;;;;;6282105;28;20371;-53
2022/07/28 12:42:31;;;;;;;4.10;2.57;;;24.70;1.00;;;;;;6281761;28;20320;-53
2022/07/28 12:45:44;;;;;;;4.37;2.73;;;24.60;1.00;;;;;;6282890;28;20261;-52
2022/07/28 12:48:47;;;;;;;2.37;2.27;;;24.60;1.00;;;;;;6286990;28;20241;-53
2022/07/28 12:51:50;;;;;;;2.60;2.40;;;24.50;1.00;;;;;;6276654;28;20294;-53
2022/07/28 12:54:55;;;;;;;2.53;2.33;;;24.40;1.00;;;;;;6285059;28;20230;-53
2022/07/28 12:57:59;;;;;;;2.57;2.47;;;24.40;1.00;;;;;;6283129;28;20299;-53
2022/07/28 13:01:07;;;;;;;4.90;2.40;;;24.10;1.00;;;;;;6275057;28;20235;-54
2022/07/28 13:04:10;;;;;;;3.20;2.40;;;24.10;1.00;;;;;;6285888;28;20744;-55
2022/07/28 13:07:15;;;;;;;3.40;2.30;;;23.90;1.00;;;;;;6281165;28;20233;-52
2022/07/28 13:10:20;;;;;;;2.77;2.47;;;23.90;1.00;;;;;;6284094;28;20253;-52
2022/07/28 13:13:23;;;;;;;2.60;2.40;;;23.90;1.00;;;;;;6286791;28;20237;-52
2022/07/28 13:16:28;;;;;;;3.80;2.60;;;24.10;1.00;;;;;;6289959;28;20387;-53
2022/07/28 13:19:31;;;;;;;3.23;2.37;;;24.30;1.00;;;;;;6286044;28;20233;-52
2022/07/28 13:22:34;;;;;;;5.27;2.57;;;24.50;1.00;;;;;;6282767;28;20324;-53
2022/07/28 13:25:38;;;;;;;3.03;2.73;;;24.40;1.00;;;;;;6285464;28;20419;-53
2022/07/28 13:28:41;;;;;;;2.60;2.20;;;24.40;1.00;;;;;;6270449;28;20328;-54
2022/07/28 13:31:44;;;;;;;6.13;2.47;;;24.30;1.00;;;;;;6280188;28;20374;-53
2022/07/28 13:34:47;;;;;;;2.80;2.60;;;24.30;1.00;;;;;;6288158;28;20232;-53
2022/07/28 13:37:50;;;;;;;2.27;2.07;;;24.30;1.00;;;;;;6267468;28;20323;-52
2022/07/28 13:40:55;;;;;;;2.47;2.27;;;24.30;1.00;;;;;;6267923;28;20792;-53
2022/07/28 13:43:58;;;;;;;3.43;2.90;;;24.50;1.00;;;;;;6275088;28;20597;-53
2022/07/28 13:47:02;;;;;;;2.53;2.33;;;24.40;1.00;;;;;;6268965;28;20425;-53
2022/07/28 13:50:08;;;;;;;2.33;2.23;;;24.20;1.00;;;;;;6279504;28;20244;-52
2022/07/28 13:53:28;;;;;;;2.73;1.87;;;24.30;1.00;;;;;;6268635;28;20683;-53
2022/07/28 13:56:43;;;;;;;3.70;2.20;;;24.50;1.00;;;;;;6272367;28;20404;-53
2022/07/28 13:59:46;;;;;;;2.13;1.97;;;24.40;1.00;;;;;;6281346;28;20326;-53
2022/07/28 14:02:49;;;;;;;3.67;2.23;;;24.40;1.00;;;;;;6284843;28;20795;-54
2022/07/28 14:05:52;;;;;;;2.60;2.03;;;24.50;1.00;;;;;;6285057;28;20233;-53
2022/07/28 14:08:56;;;;;;;2.53;2.27;;;24.70;1.00;;;;;;6280128;28;20679;-53
2022/07/28 14:12:02;;;;;;;2.70;2.30;;;24.80;1.00;;;;;;6265781;28;20264;-53
2022/07/28 14:15:08;;;;;;;2.57;2.13;;;25.00;1.00;;;;;;6279475;28;20475;-54
2022/07/28 14:18:12;;;;;;;2.37;2.27;;;25.10;1.00;;;;;;6285883;28;20243;-55
2022/07/28 14:21:16;;;;;;;2.50;2.40;;;25.10;1.00;;;;;;6280430;28;21055;-53
2022/07/28 14:24:19;;;;;;;2.23;2.10;;;24.90;1.00;;;;;;6281024;28;20366;-53
2022/07/28 14:27:24;;;;;;;2.90;2.50;;;25.00;1.00;;;;;;6286615;28;20394;-53
2022/07/28 14:30:31;;;;;;;5.00;2.67;;;25.00;1.00;;;;;;6281724;28;20232;-51
2022/07/28 14:33:38;;;;;;;3.00;2.50;;;25.00;1.00;;;;;;6262360;28;20233;-53
2022/07/28 14:36:51;;;;;;;3.47;2.73;;;25.10;1.00;;;;;;6281791;28;20407;-54
2022/07/28 14:39:54;;;;;;;3.10;2.40;;;25.20;1.00;;;;;;6273678;28;20277;-54
2022/07/28 14:42:59;;;;;;;2.77;2.67;;;25.40;1.00;;;;;;6275744;28;20323;-54
2022/07/28 14:46:03;;;;;;;3.57;2.50;;;25.30;1.00;;;;;;6286581;28;20237;-54
2022/07/28 14:49:19;;;;;;;2.57;2.30;;;25.20;1.00;;;;;;6280190;28;20649;-54
2022/07/28 14:52:22;;;;;;;3.30;2.77;;;25.30;1.00;;;;;;6284565;28;20428;-53
2022/07/28 14:55:26;;;;;;;3.13;2.90;;;25.40;1.00;;;;;;6277503;28;20241;-53
2022/07/28 14:58:31;;;;;;;2.90;2.70;;;25.50;1.00;;;;;;6268834;28;20247;-53
2022/07/28 15:01:34;;;;;;;2.53;2.43;;;25.50;1.00;;;;;;6285606;28;20287;-54
2022/07/28 15:04:38;;;;;;;3.30;2.67;;;25.50;1.00;;;;;;6280692;28;20236;-54
2022/07/28 15:07:41;;;;;;;2.97;2.70;;;25.50;1.00;;;;;;6285483;28;20775;-52
2022/07/28 15:10:44;;;;;;;2.57;2.40;;;25.50;1.00;;;;;;6288009;28;20294;-53
2022/07/28 15:13:52;;;;;;;2.53;2.43;;;25.50;1.00;;;;;;6282703;28;20232;-54
2022/07/28 15:16:55;;;;;;;3.63;2.40;;;25.50;1.00;;;;;;6286649;28;20741;-55
2022/07/28 15:19:58;;;;;;;2.80;2.30;;;25.60;1.00;;;;;;6280689;28;20237;-55
2022/07/28 15:23:01;;;;;;;5.93;2.70;;;25.60;1.00;;;;;;6287045;28;20229;-54
2022/07/28 15:26:04;;;;;;;3.30;2.70;;;25.50;1.00;;;;;;6283804;28;20321;-53
2022/07/28 15:29:08;;;;;;;3.83;3.20;;;25.50;1.00;;;;;;6279885;28;20448;-54
2022/07/28 15:32:13;;;;;;;3.03;2.67;;;25.50;1.00;;;;;;6283835;28;20241;-54
2022/07/28 15:35:18;;;;;;;3.17;2.87;;;25.50;1.00;;;;;;6285273;28;20414;-55
2022/07/28 15:38:21;;;;;;;2.87;2.40;;;25.50;1.00;;;;;;6294444;28;20527;-53
2022/07/28 15:41:24;;;;;;;2.53;2.40;;;25.60;1.00;;;;;;6291866;28;20267;-54
2022/07/28 15:44:29;;;;;;;2.37;2.20;;;25.50;1.00;;;;;;6276774;28;20294;-53
2022/07/28 15:47:32;;;;;;;2.57;2.37;;;25.30;1.00;;;;;;6271209;28;20816;-52
2022/07/28 15:50:35;;;;;;;2.80;2.60;;;25.40;1.00;;;;;;6271766;28;20264;-53
2022/07/28 15:53:39;;;;;;;2.43;2.33;;;25.20;1.00;;;;;;6281095;28;20237;-54
2022/07/28 15:56:42;;;;;;;3.53;2.80;;;25.30;1.00;;;;;;6277879;28;20229;-54
2022/07/28 15:59:47;;;;;;;2.60;2.27;;;25.40;1.00;;;;;;6285859;28;20233;-55
2022/07/28 16:02:52;;;;;;;2.53;2.33;;;25.30;1.00;;;;;;6282598;28;20237;-54
2022/07/28 16:05:57;;;;;;;3.90;2.10;;;25.30;1.00;;;;;;6285752;28;20243;-54
2022/07/28 16:09:01;;;;;;;4.33;2.60;;;25.10;1.00;;;;;;6290864;28;20320;-54
2022/07/28 16:12:05;;;;;;;2.67;2.37;;;25.10;1.00;;;;;;6285858;28;20233;-53
2022/07/28 16:15:16;;;;;;;2.50;2.40;;;25.00;1.00;;;;;;6287760;28;20550;-54
2022/07/28 16:18:19;;;;;;;5.20;2.90;;;24.90;1.00;;;;;;6285558;28;20237;-54
2022/07/28 16:21:22;;;;;;;3.60;2.60;;;24.80;1.00;;;;;;6283557;28;20247;-54